Airport ID:1G3
Update Time (UTC):25/09/2020 14:19
Wind Speed (Knots):1
Wind Direction (Magnetic):110
Temperature (°C):19
Dew Point (°C):16
Humidity (%):81
Altimeter (inHg):30.1
Density Altitude (Feet):
Visibility:10+
Clouds (Hundreds of feet):***
Present Weather:
METAR:METAR 1G3 251415Z AUTO 00000KT 10SM 19/16 A3010 RMK A01

The data displayed is for advisory purposes only and is not to be used for flight planning or operations.